sensor_id;sensor_type;location;lat;lon;timestamp;P1;durP1;ratioP1;P2;durP2;ratioP2
47259;SDS011;32999;52.412;4.890;2022-08-27T00:01:18;8.87;;;2.67;;
47259;SDS011;32999;52.412;4.890;2022-08-27T00:06:22;5.40;;;2.13;;
47259;SDS011;32999;52.412;4.890;2022-08-27T00:11:33;7.88;;;2.03;;
47259;SDS011;32999;52.412;4.890;2022-08-27T00:16:37;6.28;;;1.88;;
47259;SDS011;32999;52.412;4.890;2022-08-27T00:21:42;8.68;;;1.85;;
47259;SDS011;32999;52.412;4.890;2022-08-27T00:26:49;7.60;;;2.15;;
47259;SDS011;32999;52.412;4.890;2022-08-27T00:31:55;6.63;;;1.70;;
47259;SDS011;32999;52.412;4.890;2022-08-27T00:36:59;3.22;;;1.58;;
47259;SDS011;32999;52.412;4.890;2022-08-27T00:42:02;7.03;;;1.92;;
47259;SDS011;32999;52.412;4.890;2022-08-27T00:47:10;5.22;;;1.55;;
47259;SDS011;32999;52.412;4.890;2022-08-27T00:52:23;5.97;;;1.70;;
47259;SDS011;32999;52.412;4.890;2022-08-27T00:57:28;9.88;;;2.20;;
47259;SDS011;32999;52.412;4.890;2022-08-27T01:02:41;9.63;;;2.00;;
47259;SDS011;32999;52.412;4.890;2022-08-27T01:07:47;7.82;;;2.00;;
47259;SDS011;32999;52.412;4.890;2022-08-27T01:12:52;8.55;;;1.73;;
47259;SDS011;32999;52.412;4.890;2022-08-27T01:17:56;5.35;;;1.98;;
47259;SDS011;32999;52.412;4.890;2022-08-27T01:23:13;7.65;;;1.90;;
47259;SDS011;32999;52.412;4.890;2022-08-27T01:28:25;7.18;;;2.00;;
47259;SDS011;32999;52.412;4.890;2022-08-27T01:33:30;10.68;;;2.38;;
47259;SDS011;32999;52.412;4.890;2022-08-27T01:38:31;5.55;;;1.85;;
47259;SDS011;32999;52.412;4.890;2022-08-27T01:43:36;6.38;;;2.28;;
47259;SDS011;32999;52.412;4.890;2022-08-27T01:48:38;6.72;;;1.60;;
47259;SDS011;32999;52.412;4.890;2022-08-27T01:53:40;7.78;;;1.77;;
47259;SDS011;32999;52.412;4.890;2022-08-27T01:58:47;5.07;;;1.70;;
47259;SDS011;32999;52.412;4.890;2022-08-27T02:03:58;8.27;;;1.70;;
47259;SDS011;32999;52.412;4.890;2022-08-27T02:08:59;8.00;;;1.55;;
47259;SDS011;32999;52.412;4.890;2022-08-27T02:14:03;6.13;;;1.83;;
47259;SDS011;32999;52.412;4.890;2022-08-27T02:19:07;6.88;;;1.55;;
47259;SDS011;32999;52.412;4.890;2022-08-27T02:24:11;4.30;;;1.55;;
47259;SDS011;32999;52.412;4.890;2022-08-27T02:29:16;7.75;;;1.67;;
47259;SDS011;32999;52.412;4.890;2022-08-27T02:34:20;6.65;;;1.80;;
47259;SDS011;32999;52.412;4.890;2022-08-27T02:39:22;5.93;;;2.13;;
47259;SDS011;32999;52.412;4.890;2022-08-27T02:44:25;7.95;;;1.60;;
47259;SDS011;32999;52.412;4.890;2022-08-27T02:49:27;9.85;;;2.08;;
47259;SDS011;32999;52.412;4.890;2022-08-27T02:54:29;7.82;;;2.30;;
47259;SDS011;32999;52.412;4.890;2022-08-27T02:59:33;3.55;;;1.77;;
47259;SDS011;32999;52.412;4.890;2022-08-27T03:04:35;6.80;;;1.87;;
47259;SDS011;32999;52.412;4.890;2022-08-27T03:09:37;7.68;;;2.22;;
47259;SDS011;32999;52.412;4.890;2022-08-27T03:14:40;6.65;;;2.10;;
47259;SDS011;32999;52.412;4.890;2022-08-27T03:19:45;8.40;;;2.13;;
47259;SDS011;32999;52.412;4.890;2022-08-27T03:24:47;5.13;;;1.95;;
47259;SDS011;32999;52.412;4.890;2022-08-27T03:29:50;4.30;;;1.67;;
47259;SDS011;32999;52.412;4.890;2022-08-27T03:34:56;5.07;;;1.98;;
47259;SDS011;32999;52.412;4.890;2022-08-27T03:40:00;4.70;;;1.55;;
47259;SDS011;32999;52.412;4.890;2022-08-27T03:45:09;6.10;;;2.00;;
47259;SDS011;32999;52.412;4.890;2022-08-27T03:50:11;7.38;;;2.25;;
47259;SDS011;32999;52.412;4.890;2022-08-27T03:55:13;9.13;;;2.20;;
47259;SDS011;32999;52.412;4.890;2022-08-27T04:00:19;7.28;;;2.30;;
47259;SDS011;32999;52.412;4.890;2022-08-27T04:05:25;5.90;;;1.98;;
47259;SDS011;32999;52.412;4.890;2022-08-27T04:10:32;8.45;;;2.67;;
47259;SDS011;32999;52.412;4.890;2022-08-27T04:15:35;10.05;;;2.13;;
47259;SDS011;32999;52.412;4.890;2022-08-27T04:20:49;11.80;;;2.30;;
47259;SDS011;32999;52.412;4.890;2022-08-27T04:25:54;5.30;;;2.20;;
47259;SDS011;32999;52.412;4.890;2022-08-27T04:30:57;14.82;;;4.68;;
47259;SDS011;32999;52.412;4.890;2022-08-27T04:36:02;17.58;;;11.18;;
47259;SDS011;32999;52.412;4.890;2022-08-27T04:41:09;8.75;;;3.03;;
47259;SDS011;32999;52.412;4.890;2022-08-27T04:46:23;10.35;;;3.45;;
47259;SDS011;32999;52.412;4.890;2022-08-27T04:51:28;5.07;;;2.40;;
47259;SDS011;32999;52.412;4.890;2022-08-27T04:56:33;7.43;;;2.92;;
47259;SDS011;32999;52.412;4.890;2022-08-27T05:01:39;7.47;;;2.95;;
47259;SDS011;32999;52.412;4.890;2022-08-27T05:06:41;7.63;;;3.30;;
47259;SDS011;32999;52.412;4.890;2022-08-27T05:11:56;7.82;;;3.58;;
47259;SDS011;32999;52.412;4.890;2022-08-27T05:16:59;7.45;;;3.65;;
47259;SDS011;32999;52.412;4.890;2022-08-27T05:22:02;7.38;;;3.40;;
47259;SDS011;32999;52.412;4.890;2022-08-27T05:27:04;6.88;;;3.05;;
47259;SDS011;32999;52.412;4.890;2022-08-27T05:32:07;9.02;;;3.30;;
47259;SDS011;32999;52.412;4.890;2022-08-27T05:37:09;6.37;;;2.70;;
47259;SDS011;32999;52.412;4.890;2022-08-27T05:42:11;6.50;;;2.78;;
47259;SDS011;32999;52.412;4.890;2022-08-27T05:47:14;6.35;;;2.53;;
47259;SDS011;32999;52.412;4.890;2022-08-27T05:52:16;6.18;;;2.63;;
47259;SDS011;32999;52.412;4.890;2022-08-27T05:57:18;9.27;;;3.03;;
47259;SDS011;32999;52.412;4.890;2022-08-27T06:02:21;6.78;;;2.25;;
47259;SDS011;32999;52.412;4.890;2022-08-27T06:07:22;7.65;;;3.47;;
47259;SDS011;32999;52.412;4.890;2022-08-27T06:12:24;6.22;;;2.72;;
47259;SDS011;32999;52.412;4.890;2022-08-27T06:17:27;7.80;;;2.70;;
47259;SDS011;32999;52.412;4.890;2022-08-27T06:22:29;9.87;;;2.57;;
47259;SDS011;32999;52.412;4.890;2022-08-27T06:27:31;7.03;;;2.38;;
47259;SDS011;32999;52.412;4.890;2022-08-27T06:32:34;4.22;;;2.10;;
47259;SDS011;32999;52.412;4.890;2022-08-27T06:37:36;5.88;;;2.28;;
47259;SDS011;32999;52.412;4.890;2022-08-27T06:42:40;5.32;;;1.83;;
47259;SDS011;32999;52.412;4.890;2022-08-27T06:47:43;5.18;;;1.90;;
47259;SDS011;32999;52.412;4.890;2022-08-27T06:52:45;4.55;;;2.03;;
47259;SDS011;32999;52.412;4.890;2022-08-27T06:57:46;6.85;;;2.80;;
47259;SDS011;32999;52.412;4.890;2022-08-27T07:02:50;8.13;;;2.45;;
47259;SDS011;32999;52.412;4.890;2022-08-27T07:07:53;5.30;;;1.92;;
47259;SDS011;32999;52.412;4.890;2022-08-27T07:12:55;10.25;;;2.00;;
47259;SDS011;32999;52.412;4.890;2022-08-27T07:17:58;5.65;;;1.40;;
47259;SDS011;32999;52.412;4.890;2022-08-27T07:23:00;5.68;;;1.55;;
47259;SDS011;32999;52.412;4.890;2022-08-27T07:28:01;4.43;;;1.65;;
47259;SDS011;32999;52.412;4.890;2022-08-27T07:33:07;4.18;;;1.40;;
47259;SDS011;32999;52.412;4.890;2022-08-27T07:38:09;5.18;;;1.63;;
47259;SDS011;32999;52.412;4.890;2022-08-27T07:43:11;3.40;;;1.55;;
47259;SDS011;32999;52.412;4.890;2022-08-27T07:48:32;7.72;;;1.90;;
47259;SDS011;32999;52.412;4.890;2022-08-27T07:53:34;8.23;;;1.95;;
47259;SDS011;32999;52.412;4.890;2022-08-27T07:58:36;4.18;;;1.55;;
47259;SDS011;32999;52.412;4.890;2022-08-27T08:03:39;6.03;;;1.73;;
47259;SDS011;32999;52.412;4.890;2022-08-27T08:08:41;4.72;;;1.77;;
47259;SDS011;32999;52.412;4.890;2022-08-27T08:13:44;2.90;;;1.40;;
47259;SDS011;32999;52.412;4.890;2022-08-27T08:18:48;4.25;;;2.00;;
47259;SDS011;32999;52.412;4.890;2022-08-27T08:23:50;10.48;;;1.45;;
47259;SDS011;32999;52.412;4.890;2022-08-27T08:28:52;8.35;;;2.28;;
47259;SDS011;32999;52.412;4.890;2022-08-27T08:33:55;5.07;;;1.50;;
47259;SDS011;32999;52.412;4.890;2022-08-27T08:39:00;6.05;;;1.65;;
47259;SDS011;32999;52.412;4.890;2022-08-27T08:44:05;7.28;;;1.70;;
47259;SDS011;32999;52.412;4.890;2022-08-27T08:49:16;7.30;;;1.77;;
47259;SDS011;32999;52.412;4.890;2022-08-27T08:54:29;5.10;;;1.67;;
47259;SDS011;32999;52.412;4.890;2022-08-27T08:59:34;4.57;;;1.65;;
47259;SDS011;32999;52.412;4.890;2022-08-27T09:04:40;6.07;;;1.63;;
47259;SDS011;32999;52.412;4.890;2022-08-27T09:09:44;3.33;;;1.20;;
47259;SDS011;32999;52.412;4.890;2022-08-27T09:14:49;10.73;;;1.73;;
47259;SDS011;32999;52.412;4.890;2022-08-27T09:19:55;5.35;;;1.48;;
47259;SDS011;32999;52.412;4.890;2022-08-27T09:24:59;11.40;;;1.83;;
47259;SDS011;32999;52.412;4.890;2022-08-27T09:30:19;2.90;;;1.60;;
47259;SDS011;32999;52.412;4.890;2022-08-27T09:35:25;5.07;;;1.83;;
47259;SDS011;32999;52.412;4.890;2022-08-27T09:40:29;5.57;;;1.67;;
47259;SDS011;32999;52.412;4.890;2022-08-27T09:45:35;8.35;;;1.70;;
47259;SDS011;32999;52.412;4.890;2022-08-27T09:55:46;8.13;;;1.33;;
47259;SDS011;32999;52.412;4.890;2022-08-27T10:00:57;6.38;;;1.92;;
47259;SDS011;32999;52.412;4.890;2022-08-27T10:06:02;4.25;;;1.20;;
47259;SDS011;32999;52.412;4.890;2022-08-27T10:11:05;3.73;;;1.10;;
47259;SDS011;32999;52.412;4.890;2022-08-27T10:16:20;7.07;;;2.10;;
47259;SDS011;32999;52.412;4.890;2022-08-27T10:21:44;7.03;;;1.63;;
47259;SDS011;32999;52.412;4.890;2022-08-27T10:26:56;4.43;;;1.25;;
47259;SDS011;32999;52.412;4.890;2022-08-27T10:32:08;6.10;;;1.58;;
47259;SDS011;32999;52.412;4.890;2022-08-27T10:37:22;4.25;;;1.30;;
47259;SDS011;32999;52.412;4.890;2022-08-27T10:42:33;4.32;;;1.27;;
47259;SDS011;32999;52.412;4.890;2022-08-27T10:47:45;8.43;;;1.60;;
47259;SDS011;32999;52.412;4.890;2022-08-27T10:52:56;5.68;;;1.65;;
47259;SDS011;32999;52.412;4.890;2022-08-27T10:58:16;7.80;;;2.40;;
47259;SDS011;32999;52.412;4.890;2022-08-27T11:03:32;5.80;;;1.38;;
47259;SDS011;32999;52.412;4.890;2022-08-27T11:08:52;5.40;;;1.33;;
47259;SDS011;32999;52.412;4.890;2022-08-27T11:13:58;4.70;;;1.65;;
47259;SDS011;32999;52.412;4.890;2022-08-27T11:19:02;5.28;;;2.58;;
47259;SDS011;32999;52.412;4.890;2022-08-27T11:24:23;3.00;;;1.13;;
47259;SDS011;32999;52.412;4.890;2022-08-27T11:29:30;6.38;;;2.10;;
47259;SDS011;32999;52.412;4.890;2022-08-27T11:34:41;9.70;;;1.83;;
47259;SDS011;32999;52.412;4.890;2022-08-27T11:39:56;3.33;;;1.30;;
47259;SDS011;32999;52.412;4.890;2022-08-27T11:45:20;5.03;;;1.00;;
47259;SDS011;32999;52.412;4.890;2022-08-27T11:50:51;7.57;;;1.33;;
47259;SDS011;32999;52.412;4.890;2022-08-27T11:55:57;3.70;;;1.13;;
47259;SDS011;32999;52.412;4.890;2022-08-27T12:01:14;3.63;;;1.10;;
47259;SDS011;32999;52.412;4.890;2022-08-27T12:06:42;7.15;;;1.10;;
47259;SDS011;32999;52.412;4.890;2022-08-27T12:11:57;6.45;;;1.45;;
47259;SDS011;32999;52.412;4.890;2022-08-27T12:17:09;4.80;;;1.08;;
47259;SDS011;32999;52.412;4.890;2022-08-27T12:22:26;5.28;;;1.05;;
47259;SDS011;32999;52.412;4.890;2022-08-27T12:28:05;4.78;;;1.30;;
47259;SDS011;32999;52.412;4.890;2022-08-27T12:33:12;3.00;;;1.10;;
47259;SDS011;32999;52.412;4.890;2022-08-27T12:38:35;6.25;;;1.90;;
47259;SDS011;32999;52.412;4.890;2022-08-27T12:44:00;3.38;;;1.02;;
47259;SDS011;32999;52.412;4.890;2022-08-27T12:49:04;4.00;;;1.10;;
47259;SDS011;32999;52.412;4.890;2022-08-27T12:54:16;13.73;;;3.90;;
47259;SDS011;32999;52.412;4.890;2022-08-27T13:05:11;4.82;;;1.17;;
47259;SDS011;32999;52.412;4.890;2022-08-27T13:10:17;5.53;;;1.63;;
47259;SDS011;32999;52.412;4.890;2022-08-27T13:15:25;5.00;;;1.08;;
47259;SDS011;32999;52.412;4.890;2022-08-27T13:20:27;3.85;;;0.90;;
47259;SDS011;32999;52.412;4.890;2022-08-27T13:25:32;3.50;;;0.98;;
47259;SDS011;32999;52.412;4.890;2022-08-27T13:30:38;2.67;;;1.15;;
47259;SDS011;32999;52.412;4.890;2022-08-27T13:35:41;6.65;;;1.42;;
47259;SDS011;32999;52.412;4.890;2022-08-27T13:45:59;4.28;;;1.15;;
47259;SDS011;32999;52.412;4.890;2022-08-27T13:51:05;9.35;;;1.55;;
47259;SDS011;32999;52.412;4.890;2022-08-27T13:56:08;5.65;;;1.33;;
47259;SDS011;32999;52.412;4.890;2022-08-27T14:01:14;5.93;;;1.13;;
47259;SDS011;32999;52.412;4.890;2022-08-27T14:06:27;8.95;;;1.60;;
47259;SDS011;32999;52.412;4.890;2022-08-27T14:11:32;7.03;;;2.97;;
47259;SDS011;32999;52.412;4.890;2022-08-27T14:16:35;7.40;;;1.55;;
47259;SDS011;32999;52.412;4.890;2022-08-27T14:21:39;5.55;;;1.20;;
47259;SDS011;32999;52.412;4.890;2022-08-27T14:26:42;2.70;;;1.08;;
47259;SDS011;32999;52.412;4.890;2022-08-27T14:31:51;6.95;;;1.38;;
47259;SDS011;32999;52.412;4.890;2022-08-27T14:36:52;10.77;;;1.90;;
47259;SDS011;32999;52.412;4.890;2022-08-27T14:41:54;5.22;;;1.10;;
47259;SDS011;32999;52.412;4.890;2022-08-27T14:46:58;8.57;;;1.40;;
47259;SDS011;32999;52.412;4.890;2022-08-27T14:52:00;5.55;;;1.10;;
47259;SDS011;32999;52.412;4.890;2022-08-27T14:57:03;5.72;;;1.20;;
47259;SDS011;32999;52.412;4.890;2022-08-27T15:02:08;6.65;;;1.77;;
47259;SDS011;32999;52.412;4.890;2022-08-27T15:07:13;8.48;;;1.35;;
47259;SDS011;32999;52.412;4.890;2022-08-27T15:12:16;6.03;;;1.23;;
47259;SDS011;32999;52.412;4.890;2022-08-27T15:17:51;6.05;;;1.55;;
47259;SDS011;32999;52.412;4.890;2022-08-27T15:23:13;7.50;;;1.50;;
47259;SDS011;32999;52.412;4.890;2022-08-27T15:28:19;3.22;;;1.23;;
47259;SDS011;32999;52.412;4.890;2022-08-27T15:38:44;6.07;;;2.00;;
47259;SDS011;32999;52.412;4.890;2022-08-27T15:43:52;6.25;;;2.30;;
47259;SDS011;32999;52.412;4.890;2022-08-27T15:49:07;9.77;;;1.65;;
47259;SDS011;32999;52.412;4.890;2022-08-27T15:54:12;5.78;;;1.73;;
47259;SDS011;32999;52.412;4.890;2022-08-27T16:04:20;8.32;;;1.67;;
47259;SDS011;32999;52.412;4.890;2022-08-27T16:09:25;6.75;;;1.40;;
47259;SDS011;32999;52.412;4.890;2022-08-27T16:14:35;7.60;;;1.83;;
47259;SDS011;32999;52.412;4.890;2022-08-27T16:19:40;5.75;;;1.33;;
47259;SDS011;32999;52.412;4.890;2022-08-27T16:24:42;6.75;;;1.88;;
47259;SDS011;32999;52.412;4.890;2022-08-27T16:29:43;5.30;;;2.97;;
47259;SDS011;32999;52.412;4.890;2022-08-27T16:34:48;8.23;;;2.13;;
47259;SDS011;32999;52.412;4.890;2022-08-27T16:39:55;4.32;;;1.33;;
47259;SDS011;32999;52.412;4.890;2022-08-27T16:44:57;5.70;;;1.70;;
47259;SDS011;32999;52.412;4.890;2022-08-27T16:50:03;7.25;;;1.30;;
47259;SDS011;32999;52.412;4.890;2022-08-27T17:00:29;5.60;;;1.70;;
47259;SDS011;32999;52.412;4.890;2022-08-27T17:05:41;7.60;;;2.03;;
47259;SDS011;32999;52.412;4.890;2022-08-27T17:10:46;5.70;;;1.60;;
47259;SDS011;32999;52.412;4.890;2022-08-27T17:15:49;4.55;;;1.80;;
47259;SDS011;32999;52.412;4.890;2022-08-27T17:20:56;6.20;;;1.88;;
47259;SDS011;32999;52.412;4.890;2022-08-27T17:26:00;5.13;;;2.13;;
47259;SDS011;32999;52.412;4.890;2022-08-27T17:31:06;6.00;;;2.65;;
47259;SDS011;32999;52.412;4.890;2022-08-27T17:36:15;7.88;;;2.40;;
47259;SDS011;32999;52.412;4.890;2022-08-27T17:41:22;7.88;;;2.40;;
47259;SDS011;32999;52.412;4.890;2022-08-27T17:46:27;10.57;;;2.72;;
47259;SDS011;32999;52.412;4.890;2022-08-27T17:51:30;8.45;;;2.70;;
47259;SDS011;32999;52.412;4.890;2022-08-27T17:56:44;12.45;;;3.05;;
47259;SDS011;32999;52.412;4.890;2022-08-27T18:01:50;11.50;;;2.85;;
47259;SDS011;32999;52.412;4.890;2022-08-27T18:07:01;11.20;;;3.05;;
47259;SDS011;32999;52.412;4.890;2022-08-27T18:12:05;6.50;;;2.60;;
47259;SDS011;32999;52.412;4.890;2022-08-27T18:17:20;11.03;;;2.97;;
47259;SDS011;32999;52.412;4.890;2022-08-27T18:22:23;7.07;;;2.83;;
47259;SDS011;32999;52.412;4.890;2022-08-27T18:27:33;11.05;;;3.33;;
47259;SDS011;32999;52.412;4.890;2022-08-27T18:32:39;5.90;;;2.70;;
47259;SDS011;32999;52.412;4.890;2022-08-27T18:37:43;12.18;;;2.70;;
47259;SDS011;32999;52.412;4.890;2022-08-27T18:42:49;6.75;;;3.30;;
47259;SDS011;32999;52.412;4.890;2022-08-27T18:47:52;7.97;;;2.92;;
47259;SDS011;32999;52.412;4.890;2022-08-27T18:52:57;13.50;;;3.58;;
47259;SDS011;32999;52.412;4.890;2022-08-27T18:57:59;6.45;;;2.92;;
47259;SDS011;32999;52.412;4.890;2022-08-27T19:03:02;9.23;;;3.90;;
47259;SDS011;32999;52.412;4.890;2022-08-27T19:08:07;7.03;;;3.33;;
47259;SDS011;32999;52.412;4.890;2022-08-27T19:13:11;8.45;;;3.13;;
47259;SDS011;32999;52.412;4.890;2022-08-27T19:18:38;8.18;;;3.35;;
47259;SDS011;32999;52.412;4.890;2022-08-27T19:23:41;8.60;;;3.40;;
47259;SDS011;32999;52.412;4.890;2022-08-27T19:28:43;9.23;;;3.60;;
47259;SDS011;32999;52.412;4.890;2022-08-27T19:34:03;9.85;;;3.70;;
47259;SDS011;32999;52.412;4.890;2022-08-27T19:39:10;9.15;;;3.53;;
47259;SDS011;32999;52.412;4.890;2022-08-27T19:44:17;11.43;;;4.03;;
47259;SDS011;32999;52.412;4.890;2022-08-27T19:49:25;11.18;;;3.83;;
47259;SDS011;32999;52.412;4.890;2022-08-27T19:54:38;8.00;;;3.00;;
47259;SDS011;32999;52.412;4.890;2022-08-27T19:59:43;13.57;;;4.80;;
47259;SDS011;32999;52.412;4.890;2022-08-27T20:04:45;11.05;;;3.60;;
47259;SDS011;32999;52.412;4.890;2022-08-27T20:09:48;8.18;;;3.72;;
47259;SDS011;32999;52.412;4.890;2022-08-27T20:14:50;8.23;;;3.30;;
47259;SDS011;32999;52.412;4.890;2022-08-27T20:19:52;9.68;;;3.80;;
47259;SDS011;32999;52.412;4.890;2022-08-27T20:24:55;9.75;;;4.80;;
47259;SDS011;32999;52.412;4.890;2022-08-27T20:29:57;6.55;;;3.35;;
47259;SDS011;32999;52.412;4.890;2022-08-27T20:34:58;14.90;;;4.13;;
47259;SDS011;32999;52.412;4.890;2022-08-27T20:40:02;7.47;;;3.65;;
47259;SDS011;32999;52.412;4.890;2022-08-27T20:45:04;13.27;;;4.15;;
47259;SDS011;32999;52.412;4.890;2022-08-27T20:50:07;7.15;;;3.88;;
47259;SDS011;32999;52.412;4.890;2022-08-27T20:55:11;13.60;;;4.22;;
47259;SDS011;32999;52.412;4.890;2022-08-27T21:00:14;9.32;;;3.83;;
47259;SDS011;32999;52.412;4.890;2022-08-27T21:05:22;11.70;;;3.60;;
47259;SDS011;32999;52.412;4.890;2022-08-27T21:10:25;11.55;;;3.58;;
47259;SDS011;32999;52.412;4.890;2022-08-27T21:15:27;9.83;;;4.07;;
47259;SDS011;32999;52.412;4.890;2022-08-27T21:20:30;11.83;;;3.80;;
47259;SDS011;32999;52.412;4.890;2022-08-27T21:25:33;11.70;;;4.38;;
47259;SDS011;32999;52.412;4.890;2022-08-27T21:30:35;9.20;;;3.25;;
47259;SDS011;32999;52.412;4.890;2022-08-27T21:35:37;9.32;;;3.28;;
47259;SDS011;32999;52.412;4.890;2022-08-27T21:40:41;14.93;;;3.80;;
47259;SDS011;32999;52.412;4.890;2022-08-27T21:45:43;14.07;;;3.08;;
47259;SDS011;32999;52.412;4.890;2022-08-27T21:50:44;12.15;;;3.30;;
47259;SDS011;32999;52.412;4.890;2022-08-27T21:55:49;12.68;;;3.05;;
47259;SDS011;32999;52.412;4.890;2022-08-27T22:00:52;13.45;;;2.75;;
47259;SDS011;32999;52.412;4.890;2022-08-27T22:05:56;14.15;;;2.80;;
47259;SDS011;32999;52.412;4.890;2022-08-27T22:10:59;11.50;;;2.60;;
47259;SDS011;32999;52.412;4.890;2022-08-27T22:16:04;7.47;;;2.50;;
47259;SDS011;32999;52.412;4.890;2022-08-27T22:21:05;6.95;;;2.55;;
47259;SDS011;32999;52.412;4.890;2022-08-27T22:26:08;11.65;;;2.70;;
47259;SDS011;32999;52.412;4.890;2022-08-27T22:31:10;10.50;;;2.70;;
47259;SDS011;32999;52.412;4.890;2022-08-27T22:36:12;8.68;;;2.28;;
47259;SDS011;32999;52.412;4.890;2022-08-27T22:41:16;8.57;;;2.80;;
47259;SDS011;32999;52.412;4.890;2022-08-27T22:46:18;8.37;;;3.00;;
47259;SDS011;32999;52.412;4.890;2022-08-27T22:51:30;10.57;;;3.38;;
47259;SDS011;32999;52.412;4.890;2022-08-27T22:56:57;11.07;;;3.75;;
47259;SDS011;32999;52.412;4.890;2022-08-27T23:02:11;14.23;;;3.80;;
47259;SDS011;32999;52.412;4.890;2022-08-27T23:07:14;11.30;;;2.83;;
47259;SDS011;32999;52.412;4.890;2022-08-27T23:12:17;6.60;;;3.00;;
47259;SDS011;32999;52.412;4.890;2022-08-27T23:17:19;10.63;;;4.03;;
47259;SDS011;32999;52.412;4.890;2022-08-27T23:22:22;10.00;;;3.73;;
47259;SDS011;32999;52.412;4.890;2022-08-27T23:27:26;11.55;;;3.15;;
47259;SDS011;32999;52.412;4.890;2022-08-27T23:32:31;16.80;;;3.78;;
47259;SDS011;32999;52.412;4.890;2022-08-27T23:37:32;13.80;;;5.13;;
47259;SDS011;32999;52.412;4.890;2022-08-27T23:42:36;11.75;;;3.80;;
47259;SDS011;32999;52.412;4.890;2022-08-27T23:47:38;10.55;;;3.83;;
47259;SDS011;32999;52.412;4.890;2022-08-27T23:52:40;10.05;;;3.60;;
47259;SDS011;32999;52.412;4.890;2022-08-27T23:57:48;11.17;;;3.83;;
